.
WxDataArchive / Data Records for 2008-05-14
2008-05-13 May 2008 2008-05-15

Data Records for Wednesday, 14 May 2008

Time	Temp	Chill	HIndex	Humid	Dewpt	 Wind 	HiWind	WindDir	Rain 	Barom 
-----	----	-----	------	-----	-----	------	------	-------	-----	----- 
00:00	59.6	59.6	59.6	68	49.0	0	3	135	0.00	29.887 
00:05	59.6	59.6	59.6	68	49.0	1	3	112	0.00	29.879 
00:10	59.6	59.6	59.6	68	49.0	1	4	112	0.00	29.873 
00:15	59.6	59.6	59.6	68	49.0	1	4	135	0.00	29.871 
00:20	59.6	59.6	59.6	69	49.4	1	4	90	0.00	29.872 
00:25	59.6	59.6	59.6	69	49.4	1	6	112	0.00	29.873 
00:30	59.5	59.5	59.5	69	49.3	1	4	90	0.00	29.872 
00:35	59.5	59.5	59.5	70	49.7	0	3	90	0.00	29.873 
00:40	59.3	59.3	59.3	70	49.5	1	5	180	0.00	29.878 
00:45	59.3	59.3	59.3	70	49.5	0	2	202	0.00	29.886 
00:50	59.3	59.3	59.3	70	49.5	0	4	248	0.00	29.879 
00:55	59.3	59.3	59.3	70	49.5	0	1	248	0.00	29.875 
01:00	59.2	59.2	59.2	71	49.8	0	3	248	0.00	29.872 
01:05	59.2	59.2	59.2	70	49.4	0	3	270	0.00	29.869 
01:10	59.2	59.2	59.2	70	49.4	1	3	68	0.00	29.865 
01:15	59.3	59.3	59.3	70	49.5	1	6	0	0.00	29.867 
01:20	59.5	59.5	59.5	69	49.3	2	5	248	0.00	29.869 
01:25	59.5	59.5	59.5	70	49.7	1	2	315	0.00	29.869 
01:30	59.5	59.5	59.5	69	49.3	1	4	248	0.00	29.871 
01:35	59.5	59.5	59.5	70	49.7	2	6	292	0.00	29.874 
01:40	59.3	59.3	59.3	71	49.9	3	9	248	0.00	29.878 
01:45	59.0	59.0	59.0	73	50.4	2	7	248	0.00	29.886 
01:50	58.7	58.7	58.7	75	50.8	2	6	248	0.00	29.888 
01:55	58.3	58.3	58.3	78	51.5	1	3	248	0.01	29.886 
02:00	57.8	57.8	57.8	80	51.7	2	5	248	0.00	29.880 
02:05	57.5	57.5	57.5	82	52.0	3	6	248	0.00	29.879 
02:10	57.2	57.2	57.2	83	52.1	2	7	248	0.00	29.872 
02:15	56.9	56.9	56.9	84	52.1	1	3	225	0.01	29.868 
02:20	56.6	56.6	56.6	85	52.1	2	6	270	0.00	29.865 
02:25	56.5	56.5	56.5	86	52.4	1	4	248	0.01	29.869 
02:30	56.2	56.2	56.2	87	52.4	2	5	270	0.01	29.872 
02:35	56.0	56.0	56.0	88	52.5	1	5	248	0.01	29.869 
02:40	55.9	55.9	55.9	89	52.7	1	5	248	0.01	29.863 
02:45	55.7	55.7	55.7	90	52.8	3	8	248	0.01	29.857 
02:50	55.6	55.6	55.6	90	52.7	2	6	270	0.01	29.850 
02:55	55.6	55.6	55.6	91	53.0	1	6	248	0.00	29.843 
03:00	55.3	55.3	55.3	91	52.7	3	6	248	0.00	29.839 
03:05	55.3	55.3	55.3	90	52.4	3	13	270	0.00	29.839 
03:10	55.1	55.1	55.1	90	52.2	2	6	248	0.00	29.844 
03:15	55.1	55.1	55.1	90	52.2	3	12	248	0.00	29.849 
03:20	55.1	55.1	55.1	90	52.2	4	10	248	0.01	29.846 
03:25	55.0	55.0	55.0	90	52.1	5	12	248	0.00	29.844 
03:30	54.7	54.7	54.7	90	51.8	3	8	248	0.00	29.852 
03:35	54.7	54.7	54.7	90	51.8	4	9	248	0.01	29.855 
03:40	54.4	54.4	54.4	90	51.5	3	7	248	0.01	29.849 
03:45	54.2	54.2	54.2	91	51.6	2	4	248	0.01	29.849 
03:50	53.9	53.9	53.9	91	51.3	1	4	248	0.01	29.844 
03:55	53.6	53.6	53.6	91	51.0	2	4	248	0.00	29.840 
04:00	53.5	53.5	53.5	91	50.9	2	6	248	0.02	29.829 
04:05	53.5	53.5	53.5	91	50.9	1	4	248	0.02	29.825 
04:10	53.3	53.3	53.3	92	51.0	1	3	248	0.02	29.818 
04:15	53.2	53.2	53.2	92	50.9	2	5	248	0.01	29.828 
04:20	53.2	53.2	53.2	92	50.9	2	5	248	0.01	29.829 
04:25	53.1	53.1	53.1	93	51.1	1	4	248	0.01	29.815 
04:30	53.1	53.1	53.1	93	51.1	2	6	270	0.00	29.810 
04:35	53.1	53.1	53.1	93	51.1	1	4	248	0.01	29.812 
04:40	53.1	53.1	53.1	94	51.4	1	2	248	0.01	29.801 
04:45	53.1	53.1	53.1	94	51.4	1	3	248	0.00	29.798 
04:50	53.1	53.1	53.1	94	51.4	1	3	248	0.00	29.796 
04:55	53.2	53.2	53.2	94	51.5	1	4	225	0.01	29.793 
05:00	53.2	53.2	53.2	94	51.5	1	3	248	0.00	29.795 
05:05	53.2	53.2	53.2	94	51.5	1	3	248	0.00	29.797 
05:10	53.3	53.3	53.3	95	51.9	1	4	248	0.00	29.798 
05:15	53.3	53.3	53.3	95	51.9	2	5	248	0.00	29.799 
05:20	53.5	53.5	53.5	95	52.1	1	3	248	0.01	29.807 
05:25	53.6	53.6	53.6	95	52.2	1	3	248	0.00	29.809 
05:30	53.6	53.6	53.6	95	52.2	1	4	270	0.01	29.809 
05:35	53.6	53.6	53.6	95	52.2	1	4	248	0.01	29.806 
05:40	53.8	53.8	53.8	95	52.4	1	4	248	0.01	29.801 
05:45	53.8	53.8	53.8	95	52.4	0	2	248	0.01	29.796 
05:50	53.8	53.8	53.8	95	52.4	0	2	248	0.01	29.793 
05:55	53.8	53.8	53.8	95	52.4	1	4	68	0.00	29.785 
06:00	53.8	53.8	53.8	95	52.4	0	1	90	0.00	29.787 
06:05	53.9	53.9	53.9	95	52.5	0	2	90	0.00	29.793 
06:10	54.1	54.1	54.1	96	53.0	1	3	248	0.00	29.797 
06:15	54.1	54.1	54.1	96	53.0	1	3	90	0.01	29.792 
06:20	54.1	54.1	54.1	96	53.0	1	3	0	0.00	29.796 
06:25	54.1	54.1	54.1	96	53.0	0	2	202	0.00	29.798 
06:30	53.9	53.9	53.9	96	52.8	0	3	292	0.00	29.798 
06:35	53.9	53.9	53.9	96	52.8	1	5	90	0.00	29.797 
06:40	53.8	53.8	53.8	96	52.7	2	5	90	0.00	29.794 
06:45	53.9	53.9	53.9	96	52.8	1	4	68	0.00	29.783 
06:50	53.9	53.9	53.9	96	52.8	2	4	90	0.00	29.787 
06:55	53.9	53.9	53.9	96	52.8	1	5	68	0.00	29.797 
07:00	53.9	53.9	53.9	96	52.8	1	4	45	0.00	29.795 
07:05	53.9	53.9	53.9	96	52.8	1	3	0	0.00	29.795 
07:10	53.9	53.9	53.9	96	52.8	1	3	90	0.00	29.791 
07:15	53.9	53.9	53.9	96	52.8	1	4	135	0.00	29.788 
07:20	54.1	54.1	54.1	96	53.0	1	4	112	0.00	29.784 
07:25	54.1	54.1	54.1	96	53.0	1	4	135	0.00	29.785 
07:30	54.1	54.1	54.1	96	53.0	1	4	112	0.00	29.783 
07:35	54.2	54.2	54.2	95	52.8	1	5	112	0.00	29.787 
07:40	54.2	54.2	54.2	96	53.1	1	5	90	0.00	29.784 
07:45	54.4	54.4	54.4	96	53.3	1	3	68	0.00	29.783 
07:50	54.4	54.4	54.4	95	53.0	1	2	135	0.00	29.782 
07:55	54.5	54.5	54.5	95	53.1	1	5	68	0.00	29.781 
08:00	54.7	54.7	54.7	95	53.3	1	4	68	0.00	29.780 
08:05	54.7	54.7	54.7	96	53.6	1	5	68	0.00	29.782 
08:10	54.8	54.8	54.8	96	53.7	1	3	68	0.00	29.785 
08:15	54.8	54.8	54.8	96	53.7	0	2	270	0.00	29.784 
08:20	55.0	55.0	55.0	96	53.9	0	3	45	0.00	29.785 
08:25	55.0	55.0	55.0	96	53.9	1	7	248	0.00	29.782 
08:30	55.1	55.1	55.1	96	54.0	1	4	270	0.00	29.785 
08:35	55.1	55.1	55.1	96	54.0	1	4	270	0.00	29.785 
08:40	55.3	55.3	55.3	96	54.2	1	3	248	0.00	29.781 
08:45	55.4	55.4	55.4	96	54.3	1	3	248	0.00	29.782 
08:50	55.4	55.4	55.4	96	54.3	2	6	248	0.00	29.784 
08:55	55.6	55.6	55.6	96	54.5	1	7	225	0.00	29.784 
09:00	55.7	55.7	55.7	96	54.6	1	5	248	0.00	29.780 
09:05	55.9	55.9	55.9	96	54.8	2	9	248	0.00	29.783 
09:10	55.9	55.9	55.9	96	54.8	2	6	248	0.00	29.780 
09:15	56.0	56.0	56.0	96	54.9	2	7	270	0.00	29.785 
09:20	56.2	56.2	56.2	96	55.1	2	6	270	0.00	29.785 
09:25	56.2	56.2	56.2	96	55.1	2	5	248	0.01	29.786 
09:30	56.5	56.5	56.5	96	55.4	1	3	270	0.00	29.784 
09:35	56.6	56.6	56.6	96	55.5	1	4	248	0.00	29.785 
09:40	56.6	56.6	56.6	96	55.5	1	4	248	0.00	29.785 
09:45	56.7	56.7	56.7	96	55.6	1	4	270	0.00	29.785 
09:50	56.9	56.9	56.9	96	55.8	1	5	270	0.00	29.784 
09:55	57.0	57.0	57.0	96	55.9	2	7	225	0.00	29.786 
10:00	56.9	56.9	56.9	96	55.8	2	5	270	0.00	29.785 
10:05	56.9	56.9	56.9	96	55.8	2	7	248	0.00	29.788 
10:10	57.0	57.0	57.0	96	55.9	2	5	248	0.00	29.795 
10:15	57.0	57.0	57.0	96	55.9	2	10	248	0.00	29.792 
10:20	57.0	57.0	57.0	96	55.9	2	4	248	0.01	29.794 
10:25	57.0	57.0	57.0	96	55.9	2	9	248	0.00	29.786 
10:30	57.2	57.2	57.2	96	56.1	3	10	248	0.00	29.783 
10:35	57.2	57.2	57.2	96	56.1	2	6	225	0.00	29.783 
10:40	57.2	57.2	57.2	96	56.1	2	6	248	0.00	29.783 
10:45	57.3	57.3	57.3	96	56.2	2	8	248	0.00	29.785 
10:50	57.2	57.2	57.2	96	56.1	2	6	248	0.00	29.789 
10:55	57.2	57.2	57.2	96	56.1	3	10	270	0.00	29.786 
11:00	57.2	57.2	57.2	96	56.1	3	7	248	0.00	29.786 
11:05	57.3	57.3	57.3	96	56.2	2	7	270	0.00	29.785 
11:10	57.3	57.3	57.3	96	56.2	2	5	248	0.00	29.785 
11:15	57.5	57.5	57.5	96	56.4	2	5	248	0.00	29.786 
11:20	57.5	57.5	57.5	96	56.4	2	5	270	0.00	29.783 
11:25	57.5	57.5	57.5	96	56.4	3	9	248	0.00	29.784 
11:30	57.5	57.5	57.5	96	56.4	2	6	248	0.00	29.784 
11:35	57.5	57.5	57.5	96	56.4	2	5	248	0.00	29.784 
11:40	57.5	57.5	57.5	96	56.4	3	6	248	0.00	29.784 
11:45	57.5	57.5	57.5	96	56.4	2	5	248	0.01	29.784 
11:50	57.6	57.6	57.6	96	56.5	2	6	270	0.00	29.783 
11:55	57.8	57.8	57.8	96	56.7	2	6	270	0.00	29.782 
12:00	57.8	57.8	57.8	96	56.7	2	5	248	0.00	29.783 
12:05	57.8	57.8	57.8	96	56.7	2	7	270	0.00	29.785 
12:10	57.8	57.8	57.8	96	56.7	2	6	248	0.00	29.784 
12:15	58.0	58.0	58.0	96	56.9	1	3	225	0.00	29.785 
12:20	58.1	58.1	58.1	96	57.0	1	3	248	0.01	29.786 
12:25	58.1	58.1	58.1	96	57.0	1	4	248	0.00	29.786 
12:30	58.1	58.1	58.1	96	57.0	1	5	270	0.00	29.785 
12:35	58.3	58.3	58.3	96	57.2	2	6	248	0.00	29.784 
12:40	58.3	58.3	58.3	96	57.2	2	6	248	0.00	29.782 
12:45	58.3	58.3	58.3	96	57.2	1	4	270	0.00	29.783 
12:50	58.3	58.3	58.3	96	57.2	2	4	248	0.00	29.783 
12:55	58.3	58.3	58.3	96	57.2	1	3	248	0.00	29.782 
13:00	58.1	58.1	58.1	96	57.0	1	4	248	0.02	29.777 
13:05	58.3	58.3	58.3	96	57.2	2	7	248	0.00	29.774 
13:10	58.3	58.3	58.3	96	57.2	1	3	248	0.01	29.774 
13:15	58.4	58.4	58.4	96	57.3	1	5	248	0.01	29.776 
13:20	58.4	58.4	58.4	96	57.3	2	4	248	0.01	29.776 
13:25	58.6	58.6	58.6	96	57.5	1	5	270	0.00	29.776 
13:30	58.6	58.6	58.6	96	57.5	1	3	248	0.00	29.778 
13:35	58.6	58.6	58.6	96	57.5	1	4	248	0.00	29.776 
13:40	58.7	58.7	58.7	96	57.6	1	3	248	0.00	29.772 
13:45	58.7	58.7	58.7	96	57.6	1	6	248	0.01	29.773 
13:50	58.7	58.7	58.7	96	57.6	1	3	248	0.00	29.777 
13:55	58.6	58.6	58.6	96	57.5	1	5	248	0.01	29.781 
14:00	58.6	58.6	58.6	96	57.5	1	4	292	0.00	29.783 
14:05	58.6	58.6	58.6	96	57.5	1	3	270	0.02	29.783 
14:10	58.6	58.6	58.6	96	57.5	1	4	225	0.01	29.783 
14:15	58.7	58.7	58.7	96	57.6	1	4	248	0.00	29.780 
14:20	58.7	58.7	58.7	96	57.6	1	3	248	0.00	29.784 
14:25	58.7	58.7	58.7	96	57.6	1	3	248	0.00	29.784 
14:30	58.7	58.7	58.7	96	57.6	1	3	248	0.00	29.786 
14:35	58.7	58.7	58.7	96	57.6	1	4	248	0.00	29.785 
14:40	58.9	58.9	58.9	96	57.8	1	5	248	0.00	29.787 
14:45	58.9	58.9	58.9	96	57.8	1	3	248	0.00	29.787 
14:50	59.0	59.0	59.0	96	57.9	1	3	248	0.00	29.787 
14:55	59.0	59.0	59.0	96	57.9	1	3	248	0.00	29.787 
15:00	59.2	59.2	59.2	96	58.1	1	3	248	0.00	29.791 
15:05	59.0	59.0	59.0	96	57.9	2	5	248	0.00	29.794 
15:10	59.0	59.0	59.0	96	57.9	2	4	248	0.00	29.788 
15:15	59.2	59.2	59.2	96	58.1	1	4	292	0.00	29.787 
15:20	59.3	59.3	59.3	96	58.2	1	3	270	0.00	29.788 
15:25	59.3	59.3	59.3	96	58.2	1	5	270	0.00	29.788 
15:30	59.5	59.5	59.5	96	58.4	1	4	248	0.00	29.785 
15:35	59.6	59.6	59.6	96	58.5	0	2	248	0.00	29.788 
15:40	59.5	59.5	59.5	96	58.4	1	4	248	0.00	29.789 
15:45	59.6	59.6	59.6	96	58.5	1	3	270	0.00	29.791 
15:50	59.6	59.6	59.6	96	58.5	1	2	270	0.00	29.790 
15:55	59.6	59.6	59.6	96	58.5	1	3	248	0.00	29.797 
16:00	59.6	59.6	59.6	96	58.5	0	3	248	0.00	29.793 
16:05	59.5	59.5	59.5	96	58.4	1	3	248	0.00	29.796 
16:10	59.5	59.5	59.5	96	58.4	1	3	248	0.00	29.797 
16:15	59.3	59.3	59.3	96	58.2	1	3	292	0.00	29.801 
16:20	59.3	59.3	59.3	96	58.2	0	2	292	0.00	29.802 
16:25	59.0	59.0	59.0	96	57.9	1	2	292	0.00	29.803 
16:30	59.0	59.0	59.0	96	57.9	1	2	315	0.00	29.804 
16:35	59.0	59.0	59.0	96	57.9	1	3	315	0.00	29.806 
16:40	58.9	58.9	58.9	95	57.5	0	2	292	0.00	29.806 
16:45	58.9	58.9	58.9	95	57.5	0	2	292	0.00	29.807 
16:50	59.0	59.0	59.0	95	57.6	1	3	248	0.00	29.805 
16:55	59.0	59.0	59.0	95	57.6	1	3	270	0.00	29.806 
17:00	59.0	59.0	59.0	94	57.3	1	5	248	0.00	29.811 
17:05	59.0	59.0	59.0	94	57.3	0	2	270	0.00	29.812 
17:10	59.0	59.0	59.0	94	57.3	1	3	248	0.00	29.818 
17:15	58.7	58.7	58.7	94	57.0	1	3	248	0.00	29.822 
17:20	58.4	58.4	58.4	93	56.4	2	3	248	0.00	29.827 
17:25	58.3	58.3	58.3	92	56.0	1	4	315	0.00	29.833 
17:30	58.0	58.0	58.0	92	55.7	2	4	338	0.00	29.835 
17:35	57.6	57.6	57.6	91	55.0	1	4	338	0.00	29.837 
17:40	57.3	57.3	57.3	91	54.7	1	3	270	0.00	29.837 
17:45	57.3	57.3	57.3	91	54.7	1	3	338	0.00	29.839 
17:50	57.3	57.3	57.3	90	54.4	0	2	225	0.00	29.838 
17:55	57.5	57.5	57.5	90	54.6	1	4	248	0.00	29.839 
18:00	57.5	57.5	57.5	89	54.3	1	3	338	0.00	29.841 
18:05	57.5	57.5	57.5	89	54.3	1	3	248	0.00	29.847 
18:10	57.3	57.3	57.3	88	53.8	1	3	315	0.00	29.850 
18:15	57.3	57.3	57.3	88	53.8	1	4	292	0.00	29.852 
18:20	57.3	57.3	57.3	88	53.8	1	3	292	0.00	29.853 
18:25	57.3	57.3	57.3	88	53.8	1	3	338	0.00	29.853 
18:30	57.3	57.3	57.3	88	53.8	1	3	292	0.00	29.854 
18:35	57.2	57.2	57.2	86	53.0	1	3	292	0.00	29.855 
18:40	57.2	57.2	57.2	87	53.4	0	2	315	0.00	29.859 
18:45	57.0	57.0	57.0	86	52.9	1	3	315	0.00	29.865 
18:50	56.6	56.6	56.6	86	52.5	1	7	315	0.00	29.866 
18:55	56.5	56.5	56.5	87	52.7	1	3	248	0.00	29.870 
19:00	56.2	56.2	56.2	86	52.1	1	4	292	0.00	29.870 
19:05	55.9	55.9	55.9	86	51.8	1	3	292	0.00	29.871 
19:10	55.6	55.6	55.6	86	51.5	1	3	338	0.00	29.876 
19:15	55.3	55.3	55.3	86	51.2	1	3	292	0.00	29.880 
19:20	54.7	54.7	54.7	85	50.3	2	9	338	0.00	29.884 
19:25	54.1	54.1	54.1	86	50.0	2	4	315	0.00	29.885 
19:30	53.8	53.8	53.8	87	50.0	1	4	270	0.00	29.886 
19:35	53.8	53.8	53.8	87	50.0	1	4	315	0.00	29.887 
19:40	53.6	53.6	53.6	88	50.1	2	5	270	0.00	29.888 
19:45	53.5	53.5	53.5	88	50.0	1	4	270	0.00	29.889 
19:50	53.5	53.5	53.5	88	50.0	0	1	270	0.00	29.894 
19:55	53.5	53.5	53.5	88	50.0	1	4	292	0.00	29.894 
20:00	53.3	53.3	53.3	88	49.8	1	2	248	0.00	29.895 
20:05	53.3	53.3	53.3	88	49.8	0	3	315	0.00	29.897 
20:10	53.2	53.2	53.2	88	49.7	0	3	248	0.00	29.899 
20:15	53.2	53.2	53.2	88	49.7	1	2	248	0.00	29.901 
20:20	53.1	53.1	53.1	88	49.6	0	1	248	0.00	29.902 
20:25	52.9	52.9	52.9	88	49.4	0	2	248	0.00	29.902 
20:30	52.9	52.9	52.9	88	49.4	1	2	248	0.00	29.903 
20:35	52.8	52.8	52.8	88	49.3	1	4	270	0.00	29.907 
20:40	52.8	52.8	52.8	88	49.3	1	3	270	0.00	29.913 
20:45	52.8	52.8	52.8	88	49.3	0	1	270	0.00	29.915 
20:50	52.8	52.8	52.8	88	49.3	0	2	270	0.00	29.918 
20:55	52.8	52.8	52.8	88	49.3	0	1	270	0.00	29.921 
21:00	52.8	52.8	52.8	88	49.3	0	1	270	0.00	29.925 
21:05	52.8	52.8	52.8	87	49.0	0	1	270	0.00	29.925 
21:10	52.8	52.8	52.8	87	49.0	0	1	270	0.00	29.928 
21:15	52.6	52.6	52.6	87	48.8	0	1	270	0.00	29.930 
21:20	52.6	52.6	52.6	87	48.8	0	1	270	0.00	29.931 
21:25	52.5	52.5	52.5	87	48.7	0	1	270	0.00	29.932 
21:30	52.2	52.2	52.2	87	48.4	0	1	270	0.00	29.936 
21:35	52.0	52.0	52.0	88	48.6	0	1	270	0.00	29.936 
21:40	51.9	51.9	51.9	88	48.5	0	1	270	0.00	29.936 
21:45	51.6	51.6	51.6	88	48.2	0	0	---	0.00	29.940 
21:50	51.4	51.4	51.4	88	48.0	0	0	---	0.00	29.944 
21:55	51.1	51.1	51.1	88	47.7	0	0	---	0.00	29.945 
22:00	50.8	50.8	50.8	89	47.7	0	0	---	0.00	29.943 
22:05	50.5	50.5	50.5	89	47.4	0	0	---	0.00	29.947 
22:10	50.4	50.4	50.4	90	47.6	0	0	---	0.00	29.949 
22:15	50.2	50.2	50.2	91	47.7	0	0	---	0.00	29.950 
22:20	50.2	50.2	50.2	91	47.7	0	0	---	0.00	29.951 
22:25	50.1	50.1	50.1	91	47.6	0	0	---	0.00	29.952 
22:30	49.8	49.8	49.8	91	47.3	0	0	---	0.00	29.953 
22:35	49.8	49.8	49.8	92	47.6	0	1	270	0.00	29.953 
22:40	49.6	49.6	49.6	92	47.4	0	1	270	0.00	29.953 
22:45	49.5	49.5	49.5	92	47.3	0	1	270	0.00	29.955 
22:50	49.5	49.5	49.5	92	47.3	0	0	---	0.00	29.959 
22:55	49.4	49.4	49.4	92	47.2	0	0	---	0.00	29.961 
23:00	49.2	49.2	49.2	92	47.0	0	0	---	0.00	29.961 
23:05	49.1	49.1	49.1	92	46.9	0	0	---	0.00	29.963 
23:10	48.9	48.9	48.9	91	46.4	0	1	270	0.00	29.964 
23:15	49.1	49.1	49.1	91	46.6	0	1	270	0.00	29.966 
23:20	49.2	49.2	49.2	91	46.7	0	1	270	0.00	29.965 
23:25	49.4	49.4	49.4	91	46.9	0	1	270	0.00	29.964 
23:30	49.5	49.5	49.5	91	47.0	0	2	225	0.00	29.965 
23:35	49.8	49.8	49.8	90	47.0	0	0	---	0.00	29.966 
23:40	49.8	49.8	49.8	90	47.0	0	0	---	0.00	29.968 
23:45	49.9	49.9	49.9	90	47.1	0	1	225	0.00	29.968 
23:50	50.1	50.1	50.1	90	47.3	0	0	---	0.00	29.968 
23:55	50.1	50.1	50.1	89	47.0	0	1	225	0.00	29.968 

CoCoRaHS
IN-AL-39
A2 Web Hosting
Creative Commons License
GoDaddy
Look for:

loaded 2017-12-13 10:19:46 • last modified 2010-11-18 10:43:29
Privacy PolicyDisclaimer
• wx.awcolley.com is powered by PmWiki v.2002016 •
• all content (unless otherwise noted) © 2017 A W Colley